createdAt,value
2022-12-23T00:01:24.419Z,20.52
2022-12-23T00:03:52.487Z,19.63
2022-12-23T00:06:20.613Z,18.13
2022-12-23T00:08:47.922Z,19.33
2022-12-23T00:11:20.427Z,17.10
2022-12-23T00:14:06.221Z,19.48
2022-12-23T00:16:37.447Z,17.88
2022-12-23T00:19:05.750Z,13.55
2022-12-23T00:21:33.739Z,14.07
2022-12-23T00:24:01.004Z,15.23
2022-12-23T00:26:29.129Z,14.70
2022-12-23T00:29:00.448Z,10.88
2022-12-23T00:31:28.156Z,9.23
2022-12-23T00:33:55.394Z,9.60
2022-12-23T00:36:28.726Z,11.73
2022-12-23T00:39:16.267Z,12.20
2022-12-23T00:42:03.829Z,10.85
2022-12-23T00:44:31.383Z,10.10
2022-12-23T00:46:59.025Z,10.35
2022-12-23T00:49:44.514Z,9.00
2022-12-23T00:52:15.994Z,9.48
2022-12-23T00:54:43.357Z,11.23
2022-12-23T00:57:11.216Z,16.90
2022-12-23T00:59:38.564Z,13.80
2022-12-23T01:02:24.698Z,9.65
2022-12-23T01:05:10.732Z,8.90
2022-12-23T01:07:38.379Z,6.72
2022-12-23T01:10:06.074Z,8.20
2022-12-23T01:12:33.662Z,6.35
2022-12-23T01:15:00.881Z,7.50
2022-12-23T01:17:28.633Z,6.80
2022-12-23T01:19:55.849Z,7.95
2022-12-23T01:22:23.526Z,6.78
2022-12-23T01:24:50.750Z,5.65
2022-12-23T01:27:18.427Z,8.80
2022-12-23T01:29:46.605Z,6.63
2022-12-23T01:32:15.121Z,5.70
2022-12-23T01:34:42.476Z,5.47
2022-12-23T01:37:10.150Z,5.22
2022-12-23T01:39:37.419Z,6.90
2022-12-23T01:42:30.811Z,5.53
2022-12-23T01:45:00.983Z,6.03
2022-12-23T01:48:01.099Z,6.35
2022-12-23T01:50:38.172Z,4.93
2022-12-23T01:53:08.858Z,5.90
2022-12-23T01:55:46.724Z,5.28
2022-12-23T01:58:21.171Z,5.20
2022-12-23T02:01:07.135Z,7.03
2022-12-23T02:03:44.616Z,5.68
2022-12-23T02:06:49.902Z,5.10
2022-12-23T02:09:21.823Z,4.70
2022-12-23T02:12:01.325Z,7.20
2022-12-23T02:15:25.112Z,6.18
2022-12-23T02:18:46.543Z,5.10
2022-12-23T02:21:25.910Z,5.03
2022-12-23T02:24:11.627Z,4.53
2022-12-23T02:27:26.930Z,5.43
2022-12-23T02:30:19.184Z,4.60
2022-12-23T02:32:58.143Z,3.10
2022-12-23T02:35:37.314Z,3.28
2022-12-23T02:38:16.503Z,2.95
2022-12-23T02:40:49.329Z,2.47
2022-12-23T02:43:42.461Z,3.08
2022-12-23T02:46:30.386Z,2.72
2022-12-23T02:49:24.989Z,2.22
2022-12-23T02:51:56.305Z,2.75
2022-12-23T02:54:31.781Z,2.17
2022-12-23T02:57:03.109Z,2.40
2022-12-23T02:59:36.615Z,1.98
2022-12-23T03:02:04.352Z,2.00
2022-12-23T03:04:32.101Z,2.55
2022-12-23T03:07:04.508Z,3.50
2022-12-23T03:09:58.540Z,3.00
2022-12-23T03:13:13.901Z,3.83
2022-12-23T03:15:44.494Z,4.60
2022-12-23T03:18:11.717Z,2.70
2022-12-23T03:20:54.794Z,3.28
2022-12-23T03:23:39.491Z,2.78
2022-12-23T03:26:17.203Z,4.93
2022-12-23T03:28:57.827Z,4.85
2022-12-23T03:31:33.326Z,2.70
2022-12-23T03:34:09.748Z,4.43
2022-12-23T03:36:44.346Z,3.30
2022-12-23T03:39:16.583Z,4.05
2022-12-23T03:41:51.115Z,4.90
2022-12-23T03:44:33.115Z,3.15
2022-12-23T03:47:17.245Z,2.70
2022-12-23T03:49:55.636Z,2.33
2022-12-23T03:52:30.947Z,2.33
2022-12-23T03:55:03.293Z,3.78
2022-12-23T03:57:49.510Z,3.75
2022-12-23T04:00:17.036Z,4.25
2022-12-23T04:02:59.602Z,3.20
2022-12-23T04:05:32.042Z,2.97
2022-12-23T04:08:23.316Z,4.15
2022-12-23T04:10:52.773Z,3.13
2022-12-23T04:13:20.371Z,2.28
2022-12-23T04:15:47.939Z,2.58
2022-12-23T04:18:16.618Z,3.50
2022-12-23T04:20:43.983Z,3.95
2022-12-23T04:23:11.702Z,7.32
2022-12-23T04:25:38.970Z,5.45
2022-12-23T04:28:06.523Z,8.65
2022-12-23T04:30:34.880Z,7.13
2022-12-23T04:33:03.433Z,8.00
2022-12-23T04:35:31.422Z,7.32
2022-12-23T04:37:58.970Z,6.80
2022-12-23T04:40:26.128Z,5.53
2022-12-23T04:42:53.607Z,7.50
2022-12-23T04:45:20.879Z,22.83
2022-12-23T04:47:48.590Z,18.73
2022-12-23T04:50:17.096Z,31.70
2022-12-23T04:52:44.788Z,29.60
2022-12-23T04:55:12.516Z,25.15
2022-12-23T04:57:40.222Z,15.88
2022-12-23T05:00:08.021Z,7.75
2022-12-23T05:02:35.606Z,13.35
2022-12-23T05:05:03.169Z,16.10
2022-12-23T05:07:30.653Z,14.30
2022-12-23T05:10:02.134Z,21.17
2022-12-23T05:12:31.310Z,7.05
2022-12-23T05:14:58.632Z,5.97
2022-12-23T05:17:26.107Z,4.32
2022-12-23T05:19:53.242Z,3.17
2022-12-23T05:22:20.895Z,4.00
2022-12-23T05:24:48.720Z,5.22
2022-12-23T05:27:16.402Z,5.38
2022-12-23T05:29:43.573Z,5.80
2022-12-23T05:32:11.155Z,7.10
2022-12-23T05:34:38.416Z,5.80
2022-12-23T05:37:06.533Z,6.43
2022-12-23T05:39:33.734Z,5.18
2022-12-23T05:42:01.393Z,7.32
2022-12-23T05:44:31.607Z,10.18
2022-12-23T05:46:59.167Z,13.88
2022-12-23T05:49:26.917Z,14.57
2022-12-23T05:51:54.493Z,15.43
2022-12-23T05:54:21.635Z,16.58
2022-12-23T05:56:49.230Z,14.27
2022-12-23T05:59:16.513Z,13.75
2022-12-23T06:01:44.220Z,10.75
2022-12-23T06:04:11.972Z,9.93
2022-12-23T06:06:39.714Z,14.07
2022-12-23T06:09:06.943Z,12.73
2022-12-23T06:11:34.517Z,16.05
2022-12-23T06:14:02.899Z,17.88
2022-12-23T06:16:30.514Z,11.95
2022-12-23T06:18:57.817Z,9.93
2022-12-23T06:21:25.757Z,8.82
2022-12-23T06:23:53.040Z,6.68
2022-12-23T06:26:20.672Z,11.07
2022-12-23T06:28:47.860Z,8.02
2022-12-23T06:31:15.841Z,9.73
2022-12-23T06:33:43.044Z,13.40
2022-12-23T06:36:10.704Z,10.70
2022-12-23T06:38:37.886Z,9.98
2022-12-23T06:41:05.458Z,11.43
2022-12-23T06:43:32.617Z,12.05
2022-12-23T06:46:00.196Z,13.00
2022-12-23T06:48:28.104Z,15.25
2022-12-23T06:50:55.685Z,34.72
2022-12-23T06:53:23.084Z,35.75
2022-12-23T06:55:50.754Z,36.63
2022-12-23T06:58:17.864Z,34.97
2022-12-23T07:00:45.663Z,31.27
2022-12-23T07:03:13.106Z,26.10
2022-12-23T07:05:40.728Z,22.90
2022-12-23T07:08:07.902Z,24.48
2022-12-23T07:10:35.484Z,14.80
2022-12-23T07:13:02.718Z,15.45
2022-12-23T07:15:30.575Z,15.80
2022-12-23T07:17:57.875Z,17.60
2022-12-23T07:20:25.463Z,18.88
2022-12-23T07:22:55.203Z,17.83
2022-12-23T07:25:23.834Z,18.00
2022-12-23T07:27:55.505Z,19.38
2022-12-23T07:30:24.065Z,21.33
2022-12-23T07:32:54.500Z,15.35
2022-12-23T07:35:22.174Z,13.52
2022-12-23T07:37:54.189Z,10.85
2022-12-23T07:40:25.887Z,11.15
2022-12-23T07:42:58.485Z,12.95
2022-12-23T07:45:28.066Z,8.93
2022-12-23T07:47:58.911Z,9.77
2022-12-23T07:50:27.152Z,11.30
2022-12-23T07:52:55.045Z,8.82
2022-12-23T07:55:22.662Z,45.53
2022-12-23T07:57:51.530Z,115.53
2022-12-23T08:00:20.361Z,69.57
2022-12-23T08:02:48.448Z,81.05
2022-12-23T08:05:16.695Z,110.35
2022-12-23T08:07:45.442Z,104.32
2022-12-23T08:10:13.355Z,84.53
2022-12-23T08:12:40.572Z,101.93
2022-12-23T08:15:08.863Z,94.22
2022-12-23T08:17:36.147Z,73.20
2022-12-23T08:20:03.912Z,82.95
2022-12-23T08:22:32.281Z,61.10
2022-12-23T08:24:59.982Z,72.07
2022-12-23T08:27:27.272Z,65.25
2022-12-23T08:29:55.345Z,70.78
2022-12-23T08:32:22.539Z,64.22
2022-12-23T08:34:50.193Z,50.28
2022-12-23T08:37:17.336Z,62.33
2022-12-23T08:39:45.163Z,58.35
2022-12-23T08:42:12.384Z,74.93
2022-12-23T08:44:40.052Z,91.82
2022-12-23T08:47:07.309Z,112.53
2022-12-23T08:49:34.942Z,94.63
2022-12-23T08:52:03.834Z,116.75
2022-12-23T08:54:31.470Z,120.53
2022-12-23T08:56:58.761Z,122.35
2022-12-23T08:59:26.409Z,116.43
2022-12-23T09:01:53.797Z,108.78
2022-12-23T09:04:21.506Z,108.72
2022-12-23T09:06:48.827Z,108.25
2022-12-23T09:09:16.709Z,117.97
2022-12-23T09:11:44.798Z,94.13
2022-12-23T09:14:13.212Z,83.78
2022-12-23T09:16:40.566Z,75.47
2022-12-23T09:19:08.238Z,70.22
2022-12-23T09:21:35.835Z,69.28
2022-12-23T09:24:03.688Z,70.10
2022-12-23T09:26:31.988Z,55.47
2022-12-23T09:28:59.860Z,52.20
2022-12-23T09:31:34.299Z,56.17
2022-12-23T09:34:05.149Z,57.53
2022-12-23T09:36:32.560Z,64.82
2022-12-23T09:39:00.183Z,65.15
2022-12-23T09:41:53.912Z,63.30
2022-12-23T09:44:38.941Z,68.55
2022-12-23T09:47:17.763Z,70.10
2022-12-23T09:50:00.392Z,69.90
2022-12-23T09:53:10.532Z,74.93
2022-12-23T09:56:00.827Z,71.25
2022-12-23T09:58:43.237Z,65.90
2022-12-23T10:01:31.357Z,65.30
2022-12-23T10:04:23.221Z,86.90
2022-12-23T10:07:03.145Z,87.95
2022-12-23T10:09:39.000Z,84.28
2022-12-23T10:14:42.224Z,60.15
2022-12-23T10:17:25.380Z,57.05
2022-12-23T10:19:55.896Z,57.55
2022-12-23T10:22:43.335Z,52.03
2022-12-23T10:25:18.350Z,58.90
2022-12-23T10:27:46.056Z,47.17
2022-12-23T10:30:51.366Z,57.53
2022-12-23T10:33:22.986Z,45.55
2022-12-23T10:36:09.526Z,46.45
2022-12-23T10:39:05.925Z,82.80
2022-12-23T10:41:49.651Z,67.93
2022-12-23T10:44:18.046Z,60.47
2022-12-23T10:46:54.631Z,90.97
2022-12-23T10:49:47.358Z,74.25
2022-12-23T10:52:26.725Z,113.15
2022-12-23T10:54:56.522Z,114.78
2022-12-23T10:57:24.904Z,111.53
2022-12-23T10:59:52.750Z,81.50
2022-12-23T11:02:42.314Z,85.45
2022-12-23T11:05:18.073Z,104.75
2022-12-23T11:07:46.920Z,71.03
2022-12-23T11:10:26.045Z,53.78
2022-12-23T11:12:54.346Z,84.75
2022-12-23T11:15:38.630Z,78.57
2022-12-23T11:18:12.667Z,71.53
2022-12-23T11:20:43.592Z,49.03
2022-12-23T11:23:25.968Z,39.08
2022-12-23T11:26:02.437Z,61.30
2022-12-23T11:28:30.860Z,57.13
2022-12-23T11:31:05.882Z,64.70
2022-12-23T11:33:38.144Z,57.10
2022-12-23T11:36:24.318Z,81.47
2022-12-23T11:38:54.694Z,89.63
2022-12-23T11:41:27.550Z,90.00
2022-12-23T11:44:24.457Z,54.95
2022-12-23T11:46:52.771Z,65.85
2022-12-23T11:49:28.685Z,45.65
2022-12-23T11:52:05.485Z,44.47
2022-12-23T11:54:34.383Z,63.90
2022-12-23T11:57:08.832Z,72.95
2022-12-23T11:59:42.748Z,68.72
2022-12-23T12:02:20.393Z,54.83
2022-12-23T12:05:01.105Z,34.83
2022-12-23T12:07:30.577Z,44.55
2022-12-23T12:10:00.541Z,37.58
2022-12-23T12:12:29.850Z,44.53
2022-12-23T12:14:59.594Z,42.97
2022-12-23T12:17:30.229Z,43.50
2022-12-23T12:20:15.832Z,43.67
2022-12-23T12:22:49.696Z,52.75
2022-12-23T12:25:19.796Z,54.92
2022-12-23T12:27:58.096Z,66.15
2022-12-23T12:30:34.129Z,89.80
2022-12-23T12:33:14.435Z,58.30
2022-12-23T12:35:53.626Z,70.22
2022-12-23T12:38:34.360Z,49.10
2022-12-23T12:41:37.272Z,55.63
2022-12-23T12:44:25.375Z,74.93
2022-12-23T12:47:36.093Z,93.43
2022-12-23T12:50:02.512Z,113.55
2022-12-23T12:52:35.249Z,244.10
2022-12-23T12:55:13.860Z,145.60
2022-12-23T12:57:41.452Z,111.93
2022-12-23T13:00:22.092Z,123.13
2022-12-23T13:03:01.645Z,110.80
2022-12-23T13:05:59.749Z,144.07
2022-12-23T13:08:45.259Z,84.65
2022-12-23T13:11:45.518Z,74.30
2022-12-23T13:14:45.332Z,68.13
2022-12-23T13:17:24.765Z,66.03
2022-12-23T13:20:11.267Z,59.08
2022-12-23T13:22:40.227Z,68.45
2022-12-23T13:25:16.246Z,66.97
2022-12-23T13:27:59.879Z,70.05
2022-12-23T13:30:32.779Z,71.20
2022-12-23T13:33:12.340Z,78.72
2022-12-23T13:36:01.267Z,85.65
2022-12-23T13:39:06.433Z,115.28
2022-12-23T13:41:45.553Z,95.25
2022-12-23T13:44:15.341Z,93.65
2022-12-23T13:46:57.514Z,106.60
2022-12-23T13:49:45.085Z,114.47
2022-12-23T13:52:18.053Z,123.10
2022-12-23T13:54:51.569Z,120.03
2022-12-23T13:57:42.244Z,111.05
2022-12-23T14:00:18.800Z,115.22
2022-12-23T14:03:02.704Z,149.23
2022-12-23T14:05:41.739Z,140.15
2022-12-23T14:08:43.071Z,134.90
2022-12-23T14:11:27.483Z,138.73
2022-12-23T14:14:00.003Z,148.45
2022-12-23T14:16:42.543Z,144.85
2022-12-23T14:19:19.163Z,169.32
2022-12-23T14:22:05.538Z,196.40
2022-12-23T14:25:10.610Z,174.18
2022-12-23T14:27:56.912Z,175.60
2022-12-23T14:30:45.952Z,179.82
2022-12-23T14:33:32.834Z,184.38
2022-12-23T14:36:25.645Z,187.77
2022-12-23T14:39:32.953Z,210.82
2022-12-23T14:42:06.057Z,212.00
2022-12-23T14:57:03.390Z,310.23
2022-12-23T14:59:33.997Z,282.83
2022-12-23T15:02:14.433Z,259.77
2022-12-23T15:04:53.332Z,310.45
2022-12-23T15:07:32.357Z,333.17
2022-12-23T15:10:05.340Z,351.08
2022-12-23T15:12:37.558Z,313.33
2022-12-23T15:15:20.920Z,277.38
2022-12-23T15:17:48.935Z,295.13
2022-12-23T15:20:20.941Z,320.17
2022-12-23T15:22:49.610Z,342.83
2022-12-23T15:25:25.931Z,459.23
2022-12-23T15:28:01.796Z,548.20
2022-12-23T15:30:34.519Z,511.98
2022-12-23T15:33:06.426Z,456.35
2022-12-23T15:35:44.589Z,433.98
2022-12-23T15:38:15.761Z,415.10
2022-12-23T15:40:44.374Z,444.70
2022-12-23T15:43:19.987Z,452.83
2022-12-23T15:48:27.223Z,476.88
2022-12-23T15:51:01.949Z,483.13
2022-12-23T15:53:33.466Z,463.60
2022-12-23T15:56:07.065Z,487.88
2022-12-23T15:58:35.641Z,460.77
2022-12-23T16:01:03.444Z,445.67
2022-12-23T16:03:42.896Z,450.73
2022-12-23T16:06:24.582Z,446.67
2022-12-23T16:09:17.877Z,458.67
2022-12-23T16:11:59.794Z,431.98
2022-12-23T16:14:42.704Z,348.13
2022-12-23T16:17:10.313Z,71.10
2022-12-23T16:19:45.943Z,31.90
2022-12-23T16:22:22.785Z,31.88
2022-12-23T16:25:20.730Z,31.08
2022-12-23T16:28:13.363Z,76.22
2022-12-23T16:30:42.609Z,47.28
2022-12-23T16:33:36.168Z,27.13
2022-12-23T16:36:25.448Z,24.63
2022-12-23T16:39:17.219Z,29.73
2022-12-23T16:41:44.685Z,34.00
2022-12-23T16:44:12.421Z,27.52
2022-12-23T16:46:45.032Z,177.93
2022-12-23T16:49:18.823Z,491.30
2022-12-23T16:51:46.839Z,340.17
2022-12-23T16:54:17.162Z,154.48
2022-12-23T16:56:47.016Z,138.38
2022-12-23T16:59:15.049Z,54.13
2022-12-23T17:01:45.447Z,31.05
2022-12-23T17:04:13.608Z,40.97
2022-12-23T17:06:41.938Z,44.90
2022-12-23T17:09:11.551Z,52.67
2022-12-23T17:11:51.025Z,51.30
2022-12-23T17:14:21.477Z,53.90
2022-12-23T17:16:49.794Z,55.13
2022-12-23T17:19:23.437Z,61.60
2022-12-23T17:22:00.023Z,69.00
2022-12-23T17:24:28.187Z,98.30
2022-12-23T17:26:57.031Z,255.38
2022-12-23T17:29:24.777Z,234.05
2022-12-23T17:31:52.698Z,248.93
2022-12-23T17:34:24.169Z,224.00
2022-12-23T17:36:53.096Z,387.20
2022-12-23T17:39:21.882Z,367.65
2022-12-23T17:41:49.725Z,333.48
2022-12-23T17:44:18.741Z,191.40
2022-12-23T17:46:47.208Z,161.73
2022-12-23T17:49:14.823Z,179.57
2022-12-23T17:51:42.952Z,183.55
2022-12-23T17:54:31.007Z,253.90
2022-12-23T17:56:58.420Z,265.48
2022-12-23T17:59:25.982Z,234.18
2022-12-23T18:01:53.605Z,296.63
2022-12-23T18:04:21.357Z,352.88
2022-12-23T18:06:48.683Z,425.73
2022-12-23T18:09:16.941Z,510.52
2022-12-23T18:11:46.817Z,446.83
2022-12-23T18:14:20.229Z,625.63
2022-12-23T18:16:47.724Z,374.40
2022-12-23T18:19:18.683Z,298.83
2022-12-23T18:21:47.080Z,217.43
2022-12-23T18:24:15.205Z,231.70
2022-12-23T18:26:42.642Z,201.25
2022-12-23T18:29:10.308Z,263.00
2022-12-23T18:31:48.428Z,227.13
2022-12-23T18:34:18.284Z,177.13
2022-12-23T18:36:45.782Z,90.05
2022-12-23T18:39:13.468Z,72.95
2022-12-23T18:41:40.722Z,77.43
2022-12-23T18:44:17.622Z,88.15
2022-12-23T18:46:45.142Z,82.00
2022-12-23T18:49:13.053Z,171.88
2022-12-23T18:51:40.360Z,213.35
2022-12-23T18:54:13.747Z,199.55
2022-12-23T18:56:41.114Z,186.07
2022-12-23T18:59:27.360Z,192.90
2022-12-23T19:01:57.585Z,131.57
2022-12-23T19:04:29.120Z,113.07
2022-12-23T19:06:57.713Z,126.13
2022-12-23T19:09:25.801Z,157.55
2022-12-23T19:11:54.512Z,167.38
2022-12-23T19:14:22.576Z,245.68
2022-12-23T19:16:52.262Z,265.48
2022-12-23T19:19:21.781Z,306.23
2022-12-23T19:21:49.309Z,241.70
2022-12-23T19:24:17.053Z,118.43
2022-12-23T19:26:44.417Z,129.23
2022-12-23T19:29:12.247Z,129.77
2022-12-23T19:31:40.299Z,109.35
2022-12-23T19:34:12.892Z,151.02
2022-12-23T19:36:42.438Z,171.93
2022-12-23T19:39:16.776Z,97.65
2022-12-23T19:41:44.917Z,145.98
2022-12-23T19:44:12.638Z,164.38
2022-12-23T19:46:40.231Z,182.45
2022-12-23T19:49:07.909Z,97.72
2022-12-23T19:51:35.347Z,112.88
2022-12-23T19:54:03.141Z,213.88
2022-12-23T19:56:32.687Z,86.18
2022-12-23T19:59:00.460Z,93.03
2022-12-23T20:01:28.265Z,106.63
2022-12-23T20:03:56.793Z,79.57
2022-12-23T20:06:30.468Z,83.63
2022-12-23T20:09:04.142Z,82.55
2022-12-23T20:11:37.759Z,95.85
2022-12-23T20:14:05.824Z,105.30
2022-12-23T20:16:34.375Z,94.97
2022-12-23T20:19:02.764Z,120.55
2022-12-23T20:21:30.227Z,149.52
2022-12-23T20:23:58.153Z,159.30
2022-12-23T20:26:27.025Z,143.73
2022-12-23T20:28:55.832Z,162.65
2022-12-23T20:31:25.432Z,145.18
2022-12-23T20:33:54.320Z,143.48
2022-12-23T20:36:24.401Z,141.02
2022-12-23T20:38:53.265Z,145.15
2022-12-23T20:41:23.500Z,197.10
2022-12-23T20:44:23.431Z,221.38
2022-12-23T20:46:40.486Z,160.85
2022-12-23T20:49:08.244Z,86.45
2022-12-23T20:51:35.548Z,53.75
2022-12-23T20:54:03.235Z,87.60
2022-12-23T20:56:31.841Z,60.60
2022-12-23T20:59:00.482Z,120.68
2022-12-23T21:01:35.485Z,80.95
2022-12-23T21:04:06.938Z,103.80
2022-12-23T21:06:35.879Z,105.47
2022-12-23T21:09:07.098Z,113.07
2022-12-23T21:11:37.450Z,101.43
2022-12-23T21:14:07.032Z,153.50
2022-12-23T21:16:36.621Z,160.68
2022-12-23T21:19:09.262Z,141.63
2022-12-23T21:21:36.726Z,100.30
2022-12-23T21:24:05.202Z,255.68
2022-12-23T21:26:34.861Z,328.77
2022-12-23T21:29:04.949Z,395.05
2022-12-23T21:31:34.518Z,407.52
2022-12-23T21:34:02.918Z,412.67
2022-12-23T21:36:33.063Z,485.25
2022-12-23T21:39:01.057Z,463.77
2022-12-23T21:41:35.722Z,463.33
2022-12-23T21:44:03.666Z,411.15
2022-12-23T21:46:31.772Z,364.17
2022-12-23T21:49:00.230Z,363.77
2022-12-23T21:51:39.608Z,356.80
2022-12-23T21:54:09.428Z,367.13
2022-12-23T21:56:37.331Z,327.13
2022-12-23T21:59:12.079Z,349.70
2022-12-23T22:01:40.017Z,296.63
2022-12-23T22:04:08.014Z,352.95
2022-12-23T22:06:38.468Z,386.90
2022-12-23T22:09:07.476Z,381.45
2022-12-23T22:11:37.113Z,333.35
2022-12-23T22:14:07.199Z,406.60
2022-12-23T22:16:36.135Z,448.80
2022-12-23T22:19:06.420Z,446.30
2022-12-23T22:21:34.994Z,646.58
2022-12-23T22:24:03.023Z,450.83
2022-12-23T22:26:32.820Z,416.65
2022-12-23T22:29:04.836Z,452.05
2022-12-23T22:31:38.166Z,509.60
2022-12-23T22:34:06.795Z,510.67
2022-12-23T22:36:34.732Z,461.67
2022-12-23T22:39:03.553Z,409.88
2022-12-23T22:41:31.808Z,362.17
2022-12-23T22:44:00.521Z,356.40
2022-12-23T22:46:28.565Z,367.02
2022-12-23T22:48:56.753Z,337.90
2022-12-23T22:51:27.371Z,301.05
2022-12-23T22:53:55.759Z,285.90
2022-12-23T22:56:24.636Z,288.55
2022-12-23T22:58:53.342Z,309.67
2022-12-23T23:01:23.953Z,291.60
2022-12-23T23:03:57.201Z,301.17
2022-12-23T23:06:29.078Z,323.60
2022-12-23T23:08:57.527Z,363.35
2022-12-23T23:11:26.384Z,342.85
2022-12-23T23:13:54.613Z,352.60
2022-12-23T23:16:21.919Z,266.77
2022-12-23T23:18:50.559Z,223.43
2022-12-23T23:21:17.964Z,225.95
2022-12-23T23:23:46.011Z,261.48
2022-12-23T23:26:13.827Z,260.88
2022-12-23T23:28:42.781Z,341.88
2022-12-23T23:31:41.013Z,315.42
2022-12-23T23:33:58.101Z,257.70
2022-12-23T23:36:25.517Z,504.08
2022-12-23T23:38:53.265Z,429.25
2022-12-23T23:41:23.352Z,256.48
2022-12-23T23:43:51.696Z,225.88
2022-12-23T23:46:19.311Z,263.02
2022-12-23T23:48:46.974Z,256.15
2022-12-23T23:51:14.205Z,365.50
2022-12-23T23:53:41.802Z,254.98
2022-12-23T23:56:09.222Z,237.65
2022-12-23T23:58:37.780Z,256.35
